Weather reports worldwide

Advertisment
Pian Rosa, Italy (16052): temperature & dewpoint: 17.01.2019 03:00:00 - 23.01.2019 03:00:00 (CET)Pian Rosa, Italy (16052): wind speed: 17.01.2019 03:00:00 - 23.01.2019 03:00:00 (CET)Pian Rosa, Italy (16052): wind direction: 17.01.2019 03:00:00 - 23.01.2019 03:00:00 (CET)Pian Rosa, Italy (16052): visibility: 17.01.2019 03:00:00 - 23.01.2019 03:00:00 (CET)Pian Rosa, Italy (16052): sunshine duration: 17.01.2019 03:00:00 - 23.01.2019 03:00:00 (CET)
Date & Time tt [°C] td [°C] ff [km/h] ff [kn] dd vv [km] sd [min]
23.01.2019 03:00:00 -16,0 -30,0 0 0 N 10 -
23.01.2019 02:00:00 -16,0 -30,0 0 0 N 10 -
23.01.2019 01:00:00 -16,0 -30,0 0 0 N 10 -
23.01.2019 00:00:00 -15,2 -30,0 0 0 N 10 -
22.01.2019 23:00:00 -15,4 -30,0 0 0 N 10 -
22.01.2019 22:00:00 -15,2 -30,0 0 0 N 10 -
22.01.2019 21:00:00 -15,6 -30,0 - - - 10 -
22.01.2019 20:00:00 -15,2 -30,0 9 5 S 10 -
22.01.2019 19:00:00 -15,2 -28,2 9 5 S 10 -
22.01.2019 18:00:00 -14,4 -27,5 9 5 S 20 30
22.01.2019 17:00:00 -13,2 -27,1 5 3 S 80 60
22.01.2019 16:00:00 -13,0 -26,2 5 3 S 80 60
22.01.2019 15:00:00 -13,2 -25,8 4 2 N 80 60
22.01.2019 14:00:00 -13,2 -26,8 5 3 S 80 60
22.01.2019 13:00:00 -13,2 -28,3 0 0 N 60 60
22.01.2019 12:00:00 -14,6 -29,5 4 2 - 60 -
22.01.2019 11:00:00 -15,0 -27,7 0 0 N 60 60
22.01.2019 10:00:00 -16,2 -27,5 9 5 ENE 60 18
22.01.2019 09:00:00 -16,2 -26,7 9 5 ENE 50 0
22.01.2019 08:00:00 -16,4 -24,4 18 10 ENE 30 0
22.01.2019 07:00:00 -17,4 -25,3 18 10 ENE 10 -
22.01.2019 06:00:00 -16,6 -25,3 18 10 ENE 10 -
22.01.2019 05:00:00 -16,6 -23,7 28 15 ENE 10 -
22.01.2019 04:00:00 -16,8 -21,8 28 15 ENE 10 -
22.01.2019 03:00:00 -17,2 -21,7 28 15 ENE 10 -
22.01.2019 02:00:00 -17,0 -22,4 28 15 ENE 10 -
22.01.2019 01:00:00 -17,0 -22,4 28 15 ENE 10 -
22.01.2019 00:00:00 -17,0 -21,7 28 15 ENE 10 -
21.01.2019 23:00:00 -16,8 -22,4 28 15 ENE 10 -
21.01.2019 22:00:00 -17,0 -21,5 18 10 ENE 10 -
21.01.2019 21:00:00 -18,0 -18,4 18 10 ENE 10 -
21.01.2019 20:00:00 -18,2 -18,2 18 10 ENE 10 -
21.01.2019 19:00:00 -18,2 -18,2 15 8 ENE 10 -
21.01.2019 18:00:00 -18,2 -18,2 18 10 ENE 20 30
21.01.2019 17:00:00 -17,8 -17,8 15 8 ENE 40 60
21.01.2019 16:00:00 -17,4 -17,4 15 8 ENE 60 60
21.01.2019 15:00:00 -17,2 -17,2 9 5 ENE 60 60
21.01.2019 14:00:00 -16,0 -16,3 0 0 N 80 60
21.01.2019 13:00:00 -17,6 -17,6 0 0 N 80 60
21.01.2019 12:00:00 -18,6 -18,6 9 5 ENE 80 60
21.01.2019 11:00:00 -18,6 -18,6 9 5 ENE 80 30
21.01.2019 10:00:00 -18,4 -18,4 9 5 ENE 80 0
21.01.2019 09:00:00 -18,2 -18,2 28 15 NE 80 -
21.01.2019 08:00:00 -18,0 -18,0 28 15 ENE 50 -
21.01.2019 07:00:00 -18,0 -18,0 28 15 ENE 10 -
21.01.2019 06:00:00 -17,8 -17,8 28 15 NE 10 -
21.01.2019 05:00:00 -17,4 -17,4 18 10 ENE 20 -
21.01.2019 04:00:00 -17,4 -17,4 18 10 ENE 20 -
21.01.2019 03:00:00 -17,4 -17,4 18 10 ENE 20 -
21.01.2019 02:00:00 -17,4 -17,4 18 10 ENE 20 -
21.01.2019 01:00:00 -17,2 -17,2 18 10 ENE 20 -
21.01.2019 00:00:00 -17,2 -17,2 18 10 ENE 20 -
20.01.2019 23:00:00 -17,2 -17,2 18 10 ENE 20 -
20.01.2019 22:00:00 -17,0 -17,0 28 15 ENE 20 -
20.01.2019 21:00:00 -17,4 -17,4 28 15 ENE 20 -
20.01.2019 20:00:00 -17,4 -17,4 28 15 NE 20 -
20.01.2019 19:00:00 -17,4 -17,4 28 15 NE 20 -
20.01.2019 18:00:00 -17,4 -30,0 28 15 NE 30 30
20.01.2019 17:00:00 -17,2 -17,2 46 25 ENE 80 60
20.01.2019 16:00:00 -17,0 -18,8 37 20 ENE 80 60
20.01.2019 15:00:00 -15,0 -20,1 18 10 ENE 80 60
20.01.2019 14:00:00 -13,8 -19,1 4 2 - 80 60
20.01.2019 13:00:00 -14,0 -20,1 0 0 N 80 60
20.01.2019 12:00:00 -14,4 -19,5 0 0 N 80 60
20.01.2019 11:00:00 -16,0 -19,1 0 0 N 80 60
20.01.2019 10:00:00 -16,4 -19,5 9 5 ENE 80 12
20.01.2019 09:00:00 -16,2 -19,3 18 10 ENE 80 -
20.01.2019 08:00:00 -16,0 -20,9 18 10 ENE 50 -
20.01.2019 07:00:00 -15,6 -21,0 18 10 ENE 10 -
20.01.2019 06:00:00 -15,6 -21,6 18 10 E 20 -
20.01.2019 05:00:00 -15,2 -22,8 18 10 ENE 25 -
20.01.2019 04:00:00 -14,2 -22,6 4 2 - 20 -
20.01.2019 03:00:00 -14,4 -21,9 4 2 - 20 -
20.01.2019 02:00:00 -14,6 -21,6 4 2 - 20 -
20.01.2019 01:00:00 -14,8 -21,4 5 3 - 20 -
20.01.2019 00:00:00 -15,2 -22,2 0 0 N 20 -
19.01.2019 23:00:00 -15,4 -23,5 9 5 E 20 -
19.01.2019 22:00:00 -15,6 -25,9 18 10 ENE 20 -
19.01.2019 21:00:00 -15,2 -27,6 4 2 - 10 -
19.01.2019 20:00:00 -15,2 -27,6 4 2 - 10 -
19.01.2019 19:00:00 -14,6 -28,0 5 3 - 10 -
19.01.2019 18:00:00 -14,4 -29,3 4 2 - 30 30
19.01.2019 17:00:00 -14,2 -30,0 4 2 - 80 60
19.01.2019 16:00:00 -14,0 -30,0 4 2 - 80 60
19.01.2019 15:00:00 -13,2 -30,0 4 2 - 80 60
19.01.2019 14:00:00 -12,4 -30,0 4 2 - 80 60
19.01.2019 13:00:00 -13,0 -30,0 5 3 - 80 60
19.01.2019 12:00:00 -13,8 -30,0 18 10 ENE 80 60
19.01.2019 11:00:00 -14,2 -30,0 9 5 ENE 80 60
19.01.2019 10:00:00 -15,0 -27,1 18 10 NE 80 12
19.01.2019 09:00:00 -15,2 -26,3 18 10 ENE 80 -
19.01.2019 08:00:00 -15,4 -24,4 4 2 - 35 -
19.01.2019 07:00:00 -16,0 -27,1 18 10 SSW 10 -
19.01.2019 06:00:00 -15,6 -26,1 18 10 SW 10 -
19.01.2019 05:00:00 -15,0 -26,5 18 10 W 10 -
19.01.2019 04:00:00 -15,4 -23,5 18 10 SW 10 -
19.01.2019 03:00:00 -15,6 -22,6 18 10 SSW 10 -
19.01.2019 02:00:00 -16,8 -18,7 18 10 SSW 10 -
19.01.2019 01:00:00 -16,4 -21,4 18 10 SSW 10 -
19.01.2019 00:00:00 -15,2 -28,9 18 10 SSW 10 -
18.01.2019 23:00:00 -14,2 -30,0 15 8 SSW 10 -
18.01.2019 22:00:00 -14,8 -30,0 18 10 SSW 10 -
18.01.2019 21:00:00 -15,0 -29,8 18 10 SSW 10 -
18.01.2019 20:00:00 -15,2 -29,6 18 10 SSW 10 -
18.01.2019 19:00:00 -15,4 -29,8 18 10 SSW 10 -
18.01.2019 18:00:00 -15,2 -30,0 18 10 SSW 35 -
18.01.2019 17:00:00 -14,2 -30,0 18 10 S 70 0
18.01.2019 16:00:00 -13,2 -30,0 18 10 SSW 70 48
18.01.2019 15:00:00 -12,8 -30,0 4 2 - 80 60
18.01.2019 14:00:00 -12,8 -30,0 11 6 SW 80 60
18.01.2019 13:00:00 -12,6 -30,0 18 10 N 80 60
18.01.2019 12:00:00 -12,4 -30,0 28 15 E 80 60
18.01.2019 11:00:00 -15,6 -30,0 37 20 ENE 80 60
18.01.2019 10:00:00 -15,6 -30,0 55 30 E 80 0
18.01.2019 09:00:00 -16,8 -16,8 46 25 E 80 -
18.01.2019 08:00:00 -19,8 -19,8 55 30 ENE 50 -
18.01.2019 07:00:00 -19,8 -19,8 65 35 E 10 -
18.01.2019 06:00:00 -19,6 -20,2 74 40 ENE 10 -
18.01.2019 05:00:00 -19,8 -23,1 74 40 NE 0,8 -
18.01.2019 04:00:00 -19,6 -19,8 46 25 SSE 0,8 -
18.01.2019 03:00:00 -19,0 -23,4 37 20 NW 0,1 -
18.01.2019 02:00:00 -18,6 -18,6 37 20 ESE 10 -
18.01.2019 01:00:00 -18,2 -18,2 28 15 N 10 -
18.01.2019 00:00:00 -17,8 -18,5 34 18 ENE 9 -
17.01.2019 23:00:00 -16,8 -18,9 28 15 N 7 -
17.01.2019 22:00:00 -16,2 -16,2 18 10 N 5 -
17.01.2019 21:00:00 -14,2 -14,2 15 8 N 0,8 -
17.01.2019 20:00:00 -13,2 -13,2 8 4 WSW 0,1 -
17.01.2019 19:00:00 -12,6 -12,6 18 10 WSW 0,1 -
17.01.2019 18:00:00 -12,6 -12,6 18 10 NW 0,1 0
17.01.2019 17:00:00 -12,2 -12,2 28 15 NNW 0,3 0
17.01.2019 16:00:00 -11,8 -11,8 37 20 W 0,1 0
17.01.2019 15:00:00 -11,6 -11,6 37 20 WNW 0,1 0
17.01.2019 14:00:00 -10,4 -10,4 37 20 WNW 0,1 0
17.01.2019 13:00:00 -12,0 -12,0 46 25 SSW 0,1 0
17.01.2019 12:00:00 -12,2 -12,2 46 25 S 0,1 0
17.01.2019 11:00:00 -12,2 -13,6 46 25 S 0,1 36
17.01.2019 10:00:00 -11,8 -15,7 37 20 S 7 -
17.01.2019 09:00:00 -11,6 -16,7 46 25 W 60 -
17.01.2019 08:00:00 -11,2 -17,4 37 20 W 80 -
17.01.2019 07:00:00 -10,6 -17,9 37 20 W 10 -
17.01.2019 06:00:00 -10,4 -18,4 37 20 W 10 -
17.01.2019 05:00:00 -10,4 -18,6 37 20 W 10 -
17.01.2019 04:00:00 -10,4 -19,6 37 20 WSW 10 -
17.01.2019 03:00:00 -10,0 -20,5 37 20 NW 10 -

tt = temperature
td = dewpoint
ff = wind speed
dd = wind direction
vv = visibility
sd = sunshine duration

Next stations